Aviation Digital Data Service (ADDS)

Output produced by METARs form (0146 UTC 01 September 2016)
found at http://aviationweather.gov/adds/metars/
 
KSBY 312339Z 0100/0124 VRB03KT P6SM BKN250 
     FM010600 VRB03KT 5SM BR BKN040 
     FM011200 23005KT P6SM BKN050 
     FM011500 29006KT P6SM BKN040 
     FM011700 30007KT P6SM BKN035